Time;durP1;ratioP1;P1;durP2;ratioP2;P2;SDS_P1;SDS_P2;PMS_P1;PMS_P2;Temp;Humidity;BMP_temperature;BMP_pressure;BME280_temperature;BME280_humidity;BME280_pressure;Samples;Min_cycle;Max_cycle;Signal;HPM_P1;HPM_P2
2020/12/22 00:00:54;;;;;;;21.37;13.83;;;7.50;99.90;;;;;;5075575;28;20544;-52
2020/12/22 00:03:20;;;;;;;18.43;12.60;;;7.30;99.90;;;;;;5075293;28;20440;-51
2020/12/22 00:05:48;;;;;;;18.53;14.47;;;7.40;99.90;;;;;;5075819;28;20434;-52
2020/12/22 00:08:15;;;;;;;20.97;14.60;;;7.40;99.90;;;;;;5075573;28;20469;-51
2020/12/22 00:10:42;;;;;;;22.37;14.37;;;7.40;99.90;;;;;;5075775;28;20572;-54
2020/12/22 00:13:08;;;;;;;21.03;14.80;;;7.40;99.90;;;;;;5074986;28;20509;-51
2020/12/22 00:15:35;;;;;;;18.37;13.60;;;7.50;99.90;;;;;;5074462;28;20883;-52
2020/12/22 00:18:01;;;;;;;19.80;14.93;;;7.50;99.90;;;;;;5074838;28;20507;-52
2020/12/22 00:20:28;;;;;;;20.23;14.20;;;7.30;99.90;;;;;;5075031;28;20447;-52
2020/12/22 00:22:54;;;;;;;18.90;14.27;;;7.80;99.90;;;;;;5074078;28;20454;-53
2020/12/22 00:25:22;;;;;;;21.67;13.93;;;7.60;99.90;;;;;;5075160;28;20470;-51
2020/12/22 00:27:48;;;;;;;16.90;13.80;;;7.60;99.90;;;;;;5076587;28;20432;-53
2020/12/22 00:30:15;;;;;;;17.10;13.30;;;7.50;99.90;;;;;;5076732;28;20542;-53
2020/12/22 00:32:41;;;;;;;21.20;15.37;;;7.50;99.90;;;;;;5077475;28;20519;-53
2020/12/22 00:35:08;;;;;;;20.60;14.73;;;7.50;99.90;;;;;;5077344;28;20427;-53
2020/12/22 00:37:34;;;;;;;21.47;13.77;;;7.70;99.90;;;;;;5077191;28;20485;-52
2020/12/22 00:40:01;;;;;;;19.03;14.87;;;7.50;99.90;;;;;;5077370;28;20525;-52
2020/12/22 00:42:30;;;;;;;18.63;14.33;;;7.70;99.90;;;;;;5075654;28;20430;-51
2020/12/22 00:44:58;;;;;;;19.47;13.60;;;7.40;99.90;;;;;;5073912;28;20486;-52
2020/12/22 00:47:25;;;;;;;19.57;14.80;;;7.40;99.90;;;;;;5074015;28;20462;-52
2020/12/22 00:49:51;;;;;;;19.70;13.80;;;7.50;99.90;;;;;;5074648;28;20442;-51
2020/12/22 00:52:18;;;;;;;18.50;14.43;;;7.50;99.90;;;;;;5074568;28;20475;-51
2020/12/22 00:54:45;;;;;;;17.27;13.23;;;7.40;99.90;;;;;;5074781;28;20784;-53
2020/12/22 00:57:12;;;;;;;18.30;13.70;;;7.60;99.90;;;;;;5073376;28;20463;-53
2020/12/22 00:59:52;;;;;;;17.50;14.30;;;7.50;99.90;;;;;;5073344;28;20470;-53
2020/12/22 01:02:19;;;;;;;24.03;16.00;;;7.60;99.90;;;;;;5074090;28;20439;-52
2020/12/22 01:04:45;;;;;;;20.13;14.37;;;7.60;99.90;;;;;;5074598;28;20527;-53
2020/12/22 01:07:12;;;;;;;23.40;15.13;;;7.60;99.90;;;;;;5074676;28;20527;-52
2020/12/22 01:09:38;;;;;;;18.47;14.50;;;7.60;99.90;;;;;;5073186;28;20551;-53
2020/12/22 01:12:06;;;;;;;20.50;15.47;;;7.70;99.90;;;;;;5074409;28;20811;-53
2020/12/22 01:14:33;;;;;;;18.93;14.53;;;7.70;99.90;;;;;;5074168;28;20455;-52
2020/12/22 01:17:00;;;;;;;17.33;13.40;;;7.50;99.90;;;;;;5073021;28;20464;-52
2020/12/22 01:19:27;;;;;;;22.10;14.90;;;7.90;99.90;;;;;;5074224;28;20457;-52
2020/12/22 01:21:53;;;;;;;20.93;15.97;;;7.60;99.90;;;;;;5072909;28;20451;-53
2020/12/22 01:24:21;;;;;;;21.20;14.67;;;7.50;99.90;;;;;;5072553;28;20446;-52
2020/12/22 01:26:48;;;;;;;20.10;14.17;;;7.60;99.90;;;;;;5074163;28;20426;-52
2020/12/22 01:29:15;;;;;;;18.50;14.93;;;7.70;99.90;;;;;;5073879;28;20532;-52
2020/12/22 01:31:42;;;;;;;21.00;15.53;;;7.50;99.90;;;;;;5075659;28;20943;-52
2020/12/22 01:34:09;;;;;;;17.67;15.00;;;7.50;99.90;;;;;;5073879;28;20532;-52
2020/12/22 01:36:35;;;;;;;15.77;12.70;;;7.70;99.90;;;;;;5074250;28;20427;-52
2020/12/22 01:39:02;;;;;;;17.67;14.10;;;7.90;99.90;;;;;;5073840;28;20458;-52
2020/12/22 01:41:32;;;;;;;22.37;15.87;;;7.50;99.90;;;;;;5073761;28;20928;-52
2020/12/22 01:44:05;;;;;;;18.60;15.00;;;7.50;99.90;;;;;;5073452;28;20824;-52
2020/12/22 01:46:34;;;;;;;16.57;13.17;;;7.90;99.90;;;;;;5073501;28;20923;-52
2020/12/22 01:49:01;;;;;;;21.33;14.97;;;8.00;99.90;;;;;;5071704;28;20537;-53
2020/12/22 01:51:29;;;;;;;17.43;13.80;;;7.80;99.90;;;;;;5073672;28;20512;-53
2020/12/22 01:53:56;;;;;;;19.73;15.10;;;7.90;99.90;;;;;;5073149;28;20482;-52
2020/12/22 01:56:23;;;;;;;24.70;15.73;;;7.80;99.90;;;;;;5073443;28;20440;-52
2020/12/22 01:58:50;;;;;;;17.57;14.93;;;7.90;99.90;;;;;;5073410;28;20875;-52
2020/12/22 02:01:17;;;;;;;21.73;15.77;;;7.20;99.90;;;;;;5073438;28;20828;-52
2020/12/22 02:03:43;;;;;;;21.47;14.93;;;7.80;99.90;;;;;;5073348;28;20800;-52
2020/12/22 02:06:10;;;;;;;20.97;15.30;;;7.80;99.90;;;;;;5073560;28;20464;-52
2020/12/22 02:08:37;;;;;;;20.17;13.70;;;7.90;99.90;;;;;;5073235;28;20648;-51
2020/12/22 02:11:04;;;;;;;19.77;15.00;;;8.00;99.90;;;;;;5073039;28;20451;-51
2020/12/22 02:13:31;;;;;;;23.20;15.50;;;8.00;99.90;;;;;;5073095;28;20545;-51
2020/12/22 02:15:57;;;;;;;21.67;15.37;;;7.90;99.90;;;;;;5071530;28;20935;-51
2020/12/22 02:18:25;;;;;;;19.00;15.13;;;8.20;99.90;;;;;;5073478;28;20439;-51
2020/12/22 02:20:52;;;;;;;18.90;14.13;;;8.00;99.90;;;;;;5072960;28;20519;-52
2020/12/22 02:23:19;;;;;;;20.03;15.50;;;8.10;99.90;;;;;;5072800;28;20446;-51
2020/12/22 02:25:47;;;;;;;21.10;15.53;;;8.10;99.90;;;;;;5072919;28;20436;-52
2020/12/22 02:28:16;;;;;;;20.93;15.90;;;8.10;99.90;;;;;;5073043;28;21064;-49
2020/12/22 02:30:43;;;;;;;20.70;15.17;;;7.70;99.90;;;;;;5073190;28;20456;-50
2020/12/22 02:33:11;;;;;;;20.10;15.50;;;7.90;99.90;;;;;;5073417;28;20499;-51
2020/12/22 02:35:38;;;;;;;18.90;14.73;;;8.10;99.90;;;;;;5074085;28;20471;-48
2020/12/22 02:38:05;;;;;;;21.83;15.23;;;7.90;99.90;;;;;;5072537;28;20431;-49
2020/12/22 02:40:32;;;;;;;22.27;16.30;;;7.80;99.90;;;;;;5072909;28;20681;-49
2020/12/22 02:43:09;;;;;;;19.60;14.73;;;8.00;99.90;;;;;;5072813;28;20427;-49
2020/12/22 02:45:36;;;;;;;21.37;15.90;;;8.20;99.90;;;;;;5073055;28;20431;-50
2020/12/22 02:48:03;;;;;;;21.97;15.77;;;8.30;99.90;;;;;;5072397;28;20921;-50
2020/12/22 02:50:29;;;;;;;20.30;15.67;;;7.90;99.90;;;;;;5072823;28;20445;-49
2020/12/22 02:52:56;;;;;;;18.67;15.47;;;8.10;99.90;;;;;;5072237;28;20549;-52
2020/12/22 02:55:22;;;;;;;20.60;15.77;;;8.40;99.90;;;;;;5072799;28;20427;-50
2020/12/22 02:57:49;;;;;;;22.90;17.37;;;7.90;99.90;;;;;;5072824;28;20927;-49
2020/12/22 03:00:16;;;;;;;23.10;15.47;;;8.00;99.90;;;;;;5072508;28;20956;-49
2020/12/22 03:02:43;;;;;;;23.23;16.70;;;7.90;99.90;;;;;;5072529;28;20435;-49
2020/12/22 03:05:09;;;;;;;22.17;16.40;;;8.40;99.90;;;;;;5072405;28;20516;-49
2020/12/22 03:07:36;;;;;;;22.90;16.97;;;8.20;99.90;;;;;;5072638;28;20486;-49
2020/12/22 03:10:03;;;;;;;24.60;17.13;;;8.00;99.90;;;;;;5073016;28;20468;-52
2020/12/22 03:12:30;;;;;;;20.20;16.30;;;8.20;99.90;;;;;;5070988;28;20987;-51
2020/12/22 03:14:57;;;;;;;22.67;15.40;;;7.90;99.90;;;;;;5072561;28;20403;-51
2020/12/22 03:17:24;;;;;;;24.77;16.83;;;8.40;99.90;;;;;;5070161;28;20973;-51
2020/12/22 03:19:50;;;;;;;20.10;15.83;;;8.00;99.90;;;;;;5072453;28;20427;-51
2020/12/22 03:22:17;;;;;;;21.60;17.13;;;8.40;99.90;;;;;;5072049;28;20472;-52
2020/12/22 03:24:43;;;;;;;22.63;16.57;;;8.10;99.90;;;;;;5072040;28;20474;-52
2020/12/22 03:27:10;;;;;;;26.83;17.83;;;8.10;99.90;;;;;;5070938;28;20456;-52
2020/12/22 03:29:36;;;;;;;20.70;16.47;;;8.00;99.90;;;;;;5071907;28;20651;-52
2020/12/22 03:32:03;;;;;;;26.50;16.97;;;8.20;99.90;;;;;;5071918;28;20513;-51
2020/12/22 03:34:30;;;;;;;21.60;15.73;;;8.10;99.90;;;;;;5071462;28;20523;-52
2020/12/22 03:36:56;;;;;;;20.57;15.83;;;8.40;99.90;;;;;;5072868;28;20418;-51
2020/12/22 03:39:23;;;;;;;22.53;16.03;;;8.10;99.90;;;;;;5071772;28;20978;-51
2020/12/22 03:41:50;;;;;;;19.50;14.77;;;8.00;99.90;;;;;;5072279;28;20475;-51
2020/12/22 03:44:16;;;;;;;21.80;15.83;;;8.50;99.90;;;;;;5071329;28;20436;-52
2020/12/22 03:46:46;;;;;;;22.20;16.60;;;8.10;99.90;;;;;;5070949;28;20430;-51
2020/12/22 03:49:14;;;;;;;23.93;15.80;;;8.00;99.90;;;;;;5071750;28;20455;-51
2020/12/22 03:51:40;;;;;;;21.70;15.10;;;8.30;99.90;;;;;;5069084;28;20484;-50
2020/12/22 03:54:07;;;;;;;23.20;16.50;;;8.20;99.90;;;;;;5070629;28;20881;-48
2020/12/22 03:56:34;;;;;;;20.73;16.70;;;8.30;99.90;;;;;;5071858;28;20518;-48
2020/12/22 03:59:00;;;;;;;21.50;14.97;;;8.20;99.90;;;;;;5071789;28;20446;-48
2020/12/22 04:01:27;;;;;;;23.80;16.27;;;8.20;99.90;;;;;;5071632;28;20449;-50
2020/12/22 04:03:53;;;;;;;21.10;15.87;;;8.00;99.90;;;;;;5071068;28;20414;-49
2020/12/22 04:06:21;;;;;;;21.00;15.73;;;8.00;99.90;;;;;;5071266;28;20442;-49
2020/12/22 04:08:53;;;;;;;21.37;16.20;;;8.20;99.90;;;;;;5071514;28;20433;-49
2020/12/22 04:11:20;;;;;;;20.60;15.23;;;8.10;99.90;;;;;;5071163;28;20444;-49
2020/12/22 04:13:46;;;;;;;20.43;14.47;;;8.20;99.90;;;;;;5070976;28;20470;-50
2020/12/22 04:16:13;;;;;;;22.60;15.60;;;8.40;99.90;;;;;;5070709;28;20893;-48
2020/12/22 04:18:40;;;;;;;20.20;15.10;;;8.50;99.90;;;;;;5071540;28;20493;-50
2020/12/22 04:21:06;;;;;;;22.23;16.50;;;8.40;99.90;;;;;;5071724;28;20843;-50
2020/12/22 04:23:34;;;;;;;20.30;14.90;;;8.10;99.90;;;;;;5070930;28;20432;-51
2020/12/22 04:26:00;;;;;;;19.20;15.27;;;8.30;99.90;;;;;;5071157;28;20432;-51
2020/12/22 04:28:27;;;;;;;22.40;15.07;;;8.30;99.90;;;;;;5071047;28;20439;-51
2020/12/22 04:30:53;;;;;;;20.63;16.00;;;8.40;99.90;;;;;;5071102;28;20999;-51
2020/12/22 04:33:20;;;;;;;19.33;14.77;;;8.30;99.90;;;;;;5070813;28;20545;-50
2020/12/22 04:35:46;;;;;;;17.67;14.27;;;8.30;99.90;;;;;;5071008;28;20466;-50
2020/12/22 04:38:13;;;;;;;18.73;14.63;;;8.40;99.90;;;;;;5072442;28;20528;-50
2020/12/22 04:40:40;;;;;;;17.67;13.90;;;8.30;99.90;;;;;;5076244;28;20487;-51
2020/12/22 04:43:07;;;;;;;19.20;13.57;;;8.40;99.90;;;;;;5074781;28;20428;-51
2020/12/22 04:45:34;;;;;;;18.77;14.40;;;8.40;99.90;;;;;;5074405;28;20467;-50
2020/12/22 04:48:01;;;;;;;16.30;12.67;;;8.60;99.90;;;;;;5075044;28;20483;-52
2020/12/22 04:50:28;;;;;;;21.37;14.67;;;8.40;99.90;;;;;;5074396;28;20468;-52
2020/12/22 04:52:55;;;;;;;17.37;14.30;;;8.50;99.90;;;;;;5074306;28;20508;-51
2020/12/22 04:55:22;;;;;;;16.60;12.87;;;8.40;99.90;;;;;;5074648;28;20800;-51
2020/12/22 04:57:51;;;;;;;17.10;13.47;;;8.50;99.90;;;;;;5074376;28;20436;-52
2020/12/22 05:00:19;;;;;;;18.43;14.13;;;8.30;99.90;;;;;;5074403;28;20447;-51
2020/12/22 05:02:45;;;;;;;20.80;14.90;;;8.40;99.90;;;;;;5072856;28;20484;-52
2020/12/22 05:05:13;;;;;;;19.33;13.30;;;8.30;99.90;;;;;;5074623;28;20467;-51
2020/12/22 05:07:40;;;;;;;17.97;12.80;;;8.50;99.90;;;;;;5074264;28;20510;-52
2020/12/22 05:10:11;;;;;;;18.07;13.23;;;8.40;99.90;;;;;;5073999;28;20470;-51
2020/12/22 05:12:38;;;;;;;20.20;13.00;;;8.50;99.90;;;;;;5073902;28;20456;-52
2020/12/22 05:15:07;;;;;;;18.07;13.30;;;8.70;99.90;;;;;;5073326;28;20441;-52
2020/12/22 05:17:40;;;;;;;17.23;13.33;;;8.50;99.90;;;;;;5073407;28;20494;-51
2020/12/22 05:20:11;;;;;;;17.13;13.20;;;8.60;99.90;;;;;;5074164;28;20855;-50
2020/12/22 05:22:38;;;;;;;14.50;11.40;;;8.80;99.90;;;;;;5073672;28;20437;-51
2020/12/22 05:25:05;;;;;;;14.83;11.37;;;8.80;99.90;;;;;;5073963;28;20516;-52
2020/12/22 05:27:32;;;;;;;15.90;11.80;;;9.00;99.90;;;;;;5074187;28;20776;-52
2020/12/22 05:30:00;;;;;;;16.40;12.30;;;8.90;99.90;;;;;;5074032;28;20480;-50
2020/12/22 05:32:28;;;;;;;13.63;11.10;;;8.70;99.90;;;;;;5073415;28;20437;-52
2020/12/22 05:34:55;;;;;;;16.37;12.07;;;8.80;99.90;;;;;;5074049;28;20488;-51
2020/12/22 05:37:25;;;;;;;14.53;11.03;;;9.00;99.90;;;;;;5074242;28;20416;-52
2020/12/22 05:39:52;;;;;;;18.10;12.70;;;8.80;99.90;;;;;;5074336;28;20464;-50
2020/12/22 05:42:19;;;;;;;16.80;12.00;;;9.00;99.90;;;;;;5075217;28;20446;-52
2020/12/22 05:44:47;;;;;;;16.17;11.60;;;8.90;99.90;;;;;;5074563;28;20823;-51
2020/12/22 05:47:15;;;;;;;14.57;10.50;;;8.90;99.90;;;;;;5072634;28;20908;-50
2020/12/22 05:49:50;;;;;;;17.20;11.93;;;8.90;99.90;;;;;;5072232;28;20819;-51
2020/12/22 05:52:20;;;;;;;13.80;11.00;;;8.80;99.90;;;;;;5073489;28;20476;-51
2020/12/22 05:54:49;;;;;;;12.07;10.33;;;8.70;99.90;;;;;;5073533;28;20473;-51
2020/12/22 05:57:20;;;;;;;14.00;9.90;;;8.80;99.90;;;;;;5073900;28;20440;-52
2020/12/22 05:59:46;;;;;;;13.10;10.80;;;8.80;99.90;;;;;;5073544;28;20446;-52
2020/12/22 06:02:23;;;;;;;15.23;10.97;;;9.10;99.90;;;;;;5073478;28;20432;-51
2020/12/22 06:04:52;;;;;;;12.67;10.77;;;9.20;99.90;;;;;;5073176;28;20456;-52
2020/12/22 06:07:18;;;;;;;13.70;10.33;;;9.00;99.90;;;;;;5071654;28;20465;-52
2020/12/22 06:09:45;;;;;;;17.83;11.40;;;9.10;99.90;;;;;;5072766;28;20483;-52
2020/12/22 06:12:12;;;;;;;17.40;11.57;;;8.90;99.90;;;;;;5073032;28;20500;-51
2020/12/22 06:14:43;;;;;;;14.43;10.30;;;8.80;99.90;;;;;;5072499;28;20481;-49
2020/12/22 06:17:12;;;;;;;12.47;10.53;;;8.80;99.90;;;;;;5072549;28;20455;-52
2020/12/22 06:19:39;;;;;;;22.20;19.90;;;9.40;99.90;;;;;;5072635;28;20457;-51
2020/12/22 06:22:10;;;;;;;14.97;11.37;;;8.90;99.90;;;;;;5072496;28;20762;-51
2020/12/22 06:24:37;;;;;;;18.00;12.40;;;9.20;99.90;;;;;;5072656;28;20464;-50
2020/12/22 06:27:05;;;;;;;17.07;11.90;;;8.90;99.90;;;;;;5072743;28;20435;-50
2020/12/22 06:29:32;;;;;;;14.50;11.00;;;9.30;99.90;;;;;;5072885;28;20506;-51
2020/12/22 06:32:22;;;;;;;13.67;10.00;;;8.70;99.90;;;;;;5072675;28;20429;-51
2020/12/22 06:34:49;;;;;;;12.80;10.80;;;9.30;99.90;;;;;;5072519;28;20473;-51
2020/12/22 06:37:16;;;;;;;13.60;9.57;;;8.90;99.90;;;;;;5072360;28;20422;-51
2020/12/22 06:39:44;;;;;;;11.70;9.60;;;9.20;99.90;;;;;;5072415;28;20844;-51
2020/12/22 06:42:31;;;;;;;11.60;10.40;;;9.20;99.90;;;;;;5072680;28;20404;-51
2020/12/22 06:45:36;;;;;;;17.37;11.30;;;9.10;99.90;;;;;;5072376;28;20436;-51
2020/12/22 06:48:03;;;;;;;12.23;9.40;;;9.00;99.90;;;;;;5072442;28;20465;-50
2020/12/22 06:50:40;;;;;;;13.67;9.23;;;9.30;99.90;;;;;;5072583;28;20993;-52
2020/12/22 06:53:27;;;;;;;11.70;8.67;;;9.30;99.90;;;;;;5070239;28;20479;-50
2020/12/22 06:55:54;;;;;;;12.67;9.37;;;9.10;99.90;;;;;;5071977;28;20803;-50
2020/12/22 06:58:38;;;;;;;11.23;9.23;;;9.00;99.90;;;;;;5072800;28;20472;-49
2020/12/22 07:01:30;;;;;;;11.67;8.43;;;9.40;99.90;;;;;;5071579;28;20429;-50
2020/12/22 07:04:18;;;;;;;10.23;7.90;;;9.20;99.90;;;;;;5071631;28;20934;-50
2020/12/22 07:06:52;;;;;;;10.23;7.67;;;9.30;99.90;;;;;;5071514;28;20934;-50
2020/12/22 07:09:20;;;;;;;9.43;7.67;;;9.30;99.90;;;;;;5071761;28;20468;-49
2020/12/22 07:11:48;;;;;;;8.00;7.03;;;9.20;99.90;;;;;;5071883;28;20448;-48
2020/12/22 07:14:15;;;;;;;11.70;7.83;;;9.30;99.90;;;;;;5071245;28;20563;-51
2020/12/22 07:16:56;;;;;;;13.43;8.73;;;9.50;99.90;;;;;;5070951;28;20431;-50
2020/12/22 07:19:28;;;;;;;12.43;8.30;;;9.40;99.90;;;;;;5071681;28;20446;-51
2020/12/22 07:21:55;;;;;;;9.73;7.40;;;9.80;99.90;;;;;;5072047;28;20923;-50
2020/12/22 07:24:23;;;;;;;8.20;6.83;;;9.50;99.90;;;;;;5071559;28;20479;-51
2020/12/22 07:26:50;;;;;;;9.07;6.90;;;9.00;99.90;;;;;;5070799;28;20461;-51
2020/12/22 07:29:17;;;;;;;7.70;6.90;;;9.50;99.90;;;;;;5072224;28;20452;-50
2020/12/22 07:31:44;;;;;;;8.40;6.77;;;9.50;99.90;;;;;;5071471;28;20944;-50
2020/12/22 07:34:11;;;;;;;6.77;6.10;;;9.50;99.90;;;;;;5071386;28;20508;-50
2020/12/22 07:36:38;;;;;;;7.93;6.33;;;9.70;99.90;;;;;;5071918;28;20460;-50
2020/12/22 07:39:16;;;;;;;8.27;6.43;;;10.30;99.90;;;;;;5071559;28;20449;-50
2020/12/22 07:41:44;;;;;;;9.73;7.60;;;9.70;99.90;;;;;;5070109;28;20445;-51
2020/12/22 07:44:12;;;;;;;6.33;5.50;;;9.90;99.90;;;;;;5071894;28;20929;-50
2020/12/22 07:46:40;;;;;;;7.53;5.70;;;9.80;99.90;;;;;;5068393;28;20950;-50
2020/12/22 07:49:08;;;;;;;8.10;5.77;;;10.00;99.90;;;;;;5072082;28;20450;-52
2020/12/22 07:51:35;;;;;;;6.30;5.70;;;10.00;99.90;;;;;;5071494;28;20430;-50
2020/12/22 07:54:03;;;;;;;11.07;7.20;;;10.00;99.90;;;;;;5071525;28;20565;-51
2020/12/22 07:56:32;;;;;;;24.70;17.07;;;9.90;99.90;;;;;;5071395;28;20441;-50
2020/12/22 07:59:03;;;;;;;25.37;17.67;;;9.80;99.90;;;;;;5071263;28;20458;-51
2020/12/22 08:01:38;;;;;;;16.43;13.10;;;10.40;99.90;;;;;;5071280;28;20524;-50
2020/12/22 08:04:12;;;;;;;8.40;7.07;;;10.30;99.90;;;;;;5070921;28;20425;-52
2020/12/22 08:06:39;;;;;;;7.67;6.57;;;10.00;99.90;;;;;;5071464;28;20803;-52
2020/12/22 08:09:06;;;;;;;6.37;5.77;;;10.10;99.90;;;;;;5071414;28;20485;-52
2020/12/22 08:11:33;;;;;;;5.90;5.30;;;10.40;99.90;;;;;;5066781;28;20450;-50
2020/12/22 08:14:03;;;;;;;5.27;4.60;;;10.50;99.90;;;;;;5053355;28;20456;-52
2020/12/22 08:16:33;;;;;;;5.53;4.63;;;10.50;99.90;;;;;;5062591;28;20904;-51
2020/12/22 08:19:04;;;;;;;5.30;4.60;;;10.30;99.90;;;;;;5074975;28;20900;-51
2020/12/22 08:21:32;;;;;;;5.13;4.60;;;10.20;99.90;;;;;;5074861;28;20399;-52
2020/12/22 08:23:59;;;;;;;6.93;4.67;;;10.40;99.90;;;;;;5074572;28;20472;-52
2020/12/22 08:26:26;;;;;;;4.27;3.60;;;10.50;99.90;;;;;;5075352;28;20469;-51
2020/12/22 08:28:54;;;;;;;6.00;5.40;;;10.50;99.90;;;;;;5075206;28;20484;-51
2020/12/22 08:31:26;;;;;;;5.27;4.23;;;10.40;99.90;;;;;;5075831;28;20445;-51
2020/12/22 08:33:59;;;;;;;5.40;4.13;;;10.40;99.90;;;;;;5076326;28;20469;-52
2020/12/22 08:36:28;;;;;;;5.00;3.20;;;10.60;99.90;;;;;;5076201;28;20466;-51
2020/12/22 08:39:14;;;;;;;4.40;3.73;;;10.40;99.90;;;;;;5076635;28;20968;-51
2020/12/22 08:41:42;;;;;;;4.10;3.43;;;10.40;99.90;;;;;;5075974;28;20425;-51
2020/12/22 08:44:10;;;;;;;4.27;3.20;;;10.60;99.90;;;;;;5074229;28;20917;-52
2020/12/22 08:46:38;;;;;;;3.93;2.73;;;10.60;99.90;;;;;;5074567;28;20430;-51
2020/12/22 08:49:09;;;;;;;4.23;3.43;;;10.60;99.90;;;;;;5074591;28;20842;-51
2020/12/22 08:51:37;;;;;;;3.10;2.80;;;10.80;99.90;;;;;;5073270;28;20452;-51
2020/12/22 08:54:04;;;;;;;3.40;2.90;;;10.70;99.90;;;;;;5074329;28;20476;-51
2020/12/22 08:56:31;;;;;;;7.20;3.40;;;10.90;99.90;;;;;;5074202;28;20432;-52
2020/12/22 08:58:59;;;;;;;4.50;2.57;;;10.70;99.90;;;;;;5074836;28;20434;-51
2020/12/22 09:01:30;;;;;;;2.97;2.57;;;10.90;99.90;;;;;;5074446;28;20419;-52
2020/12/22 09:03:59;;;;;;;3.10;2.80;;;11.00;99.90;;;;;;5074355;28;20426;-52
2020/12/22 09:06:39;;;;;;;3.70;2.37;;;10.90;99.90;;;;;;5074753;28;20425;-51
2020/12/22 09:09:08;;;;;;;4.23;3.30;;;10.90;99.90;;;;;;5099401;22;20465;-46
2020/12/22 09:11:35;;;;;;;7.23;3.07;;;10.90;99.90;;;;;;5052190;28;20469;-46
2020/12/22 09:14:07;;;;;;;3.53;2.90;;;11.20;99.90;;;;;;5053491;28;20825;-45
2020/12/22 09:16:48;;;;;;;3.20;2.20;;;10.90;99.90;;;;;;5053089;28;20462;-46
2020/12/22 09:19:15;;;;;;;3.37;2.93;;;11.00;99.90;;;;;;5055183;28;20464;-46
2020/12/22 09:21:42;;;;;;;5.20;3.07;;;11.00;99.90;;;;;;5073595;28;20436;-46
2020/12/22 09:24:15;;;;;;;3.17;2.87;;;11.10;99.90;;;;;;5073156;28;20472;-46
2020/12/22 09:26:55;;;;;;;5.50;2.17;;;11.30;99.90;;;;;;5073694;28;20483;-46
2020/12/22 09:29:22;;;;;;;6.70;2.67;;;10.90;99.90;;;;;;5073450;28;20444;-46
2020/12/22 09:31:49;;;;;;;3.43;2.90;;;11.60;99.90;;;;;;5073173;28;20937;-46
2020/12/22 09:34:17;;;;;;;2.60;2.33;;;11.40;99.90;;;;;;5072645;28;20517;-46
2020/12/22 09:36:50;;;;;;;3.00;2.70;;;11.50;99.90;;;;;;5073256;28;20426;-48
2020/12/22 09:39:16;;;;;;;3.80;2.60;;;11.20;99.90;;;;;;5073064;28;20430;-48
2020/12/22 09:41:43;;;;;;;3.67;2.80;;;11.20;99.90;;;;;;5073070;28;20922;-46
2020/12/22 09:44:10;;;;;;;3.47;2.63;;;11.20;99.90;;;;;;5072887;28;20759;-48
2020/12/22 09:46:36;;;;;;;4.33;2.50;;;11.20;99.90;;;;;;5069466;28;20438;-48
2020/12/22 09:49:04;;;;;;;3.07;2.50;;;11.60;99.90;;;;;;5073440;28;20506;-46
2020/12/22 09:51:31;;;;;;;5.00;3.07;;;11.50;99.90;;;;;;5072294;28;20425;-47
2020/12/22 09:53:58;;;;;;;3.90;3.50;;;11.30;99.90;;;;;;5072290;28;20852;-46
2020/12/22 09:56:24;;;;;;;6.20;2.87;;;11.50;99.90;;;;;;5073037;28;20437;-46
2020/12/22 09:58:51;;;;;;;4.00;2.47;;;11.60;99.90;;;;;;5072589;28;20433;-47
2020/12/22 10:01:22;;;;;;;5.90;2.50;;;11.60;99.90;;;;;;5064503;28;20451;-46
2020/12/22 10:03:49;;;;;;;4.93;2.90;;;11.40;99.90;;;;;;5052358;28;20426;-46
2020/12/22 10:06:17;;;;;;;3.17;2.33;;;11.60;99.90;;;;;;5053153;28;20911;-46
2020/12/22 10:08:44;;;;;;;5.43;3.60;;;11.70;99.90;;;;;;5056265;28;20477;-47
2020/12/22 10:11:11;;;;;;;5.33;3.10;;;11.90;99.90;;;;;;5058616;28;20470;-47
2020/12/22 10:13:38;;;;;;;7.33;2.70;;;11.50;99.90;;;;;;5055867;28;20470;-46
2020/12/22 10:16:08;;;;;;;4.63;2.73;;;11.90;99.90;;;;;;5061646;28;20479;-47
2020/12/22 10:18:35;;;;;;;5.30;2.30;;;11.60;99.90;;;;;;5072457;28;20477;-45
2020/12/22 10:21:05;;;;;;;2.40;2.03;;;11.80;99.90;;;;;;5072498;28;20850;-45
2020/12/22 10:23:31;;;;;;;4.63;3.43;;;11.90;99.90;;;;;;5071670;28;20396;-45
2020/12/22 10:26:01;;;;;;;3.80;3.07;;;11.70;99.90;;;;;;5072217;28;20427;-46
2020/12/22 10:28:28;;;;;;;10.00;5.10;;;11.80;99.90;;;;;;5070689;28;20495;-46
2020/12/22 10:30:55;;;;;;;4.93;3.30;;;11.90;99.90;;;;;;5071843;28;21071;-48
2020/12/22 10:33:22;;;;;;;3.50;2.70;;;11.80;99.90;;;;;;5071607;28;20471;-46
2020/12/22 10:35:49;;;;;;;5.00;2.20;;;11.90;99.90;;;;;;5069837;28;20447;-47
2020/12/22 10:38:15;;;;;;;4.70;4.00;;;12.00;99.90;;;;;;5071556;28;20449;-46
2020/12/22 10:40:42;;;;;;;3.90;3.10;;;11.80;99.90;;;;;;5071590;28;20460;-46
2020/12/22 10:43:10;;;;;;;5.10;3.53;;;11.90;99.90;;;;;;5070169;28;20515;-46
2020/12/22 10:45:38;;;;;;;4.10;3.13;;;12.10;99.90;;;;;;5067319;28;20456;-46
2020/12/22 10:48:06;;;;;;;3.93;3.50;;;11.80;99.90;;;;;;5071834;28;20498;-46
2020/12/22 10:50:32;;;;;;;3.30;2.17;;;12.10;99.90;;;;;;5069992;28;20894;-46
2020/12/22 10:52:59;;;;;;;3.17;2.50;;;12.10;99.90;;;;;;5071283;28;20924;-47
2020/12/22 10:55:25;;;;;;;3.77;2.90;;;11.80;99.90;;;;;;5071329;28;20480;-46
2020/12/22 10:57:52;;;;;;;4.73;2.97;;;12.00;99.90;;;;;;5071116;28;20530;-46
2020/12/22 11:00:19;;;;;;;4.20;2.57;;;11.90;99.90;;;;;;5070912;28;20467;-46
2020/12/22 11:02:47;;;;;;;4.57;3.10;;;12.20;99.90;;;;;;5030976;28;20441;-47
2020/12/22 11:05:14;;;;;;;4.07;2.87;;;12.20;99.90;;;;;;5031516;28;20524;-47
2020/12/22 11:07:44;;;;;;;3.43;2.00;;;12.40;99.90;;;;;;5031489;28;20441;-46
2020/12/22 11:10:11;;;;;;;2.77;2.13;;;12.20;99.90;;;;;;5037288;28;20484;-46
2020/12/22 11:12:37;;;;;;;3.63;2.60;;;12.20;99.90;;;;;;5051800;28;20440;-47
2020/12/22 11:15:04;;;;;;;3.90;2.53;;;12.30;99.90;;;;;;5052470;28;20485;-47
2020/12/22 11:17:31;;;;;;;7.57;2.97;;;12.40;99.90;;;;;;5062808;28;20818;-46
2020/12/22 11:19:58;;;;;;;7.23;3.90;;;12.30;99.90;;;;;;5071800;28;20448;-46
2020/12/22 11:22:24;;;;;;;4.33;3.83;;;12.40;99.90;;;;;;5066321;28;20470;-46
2020/12/22 11:24:51;;;;;;;4.30;2.73;;;12.40;99.90;;;;;;5071960;28;20429;-46
2020/12/22 11:27:17;;;;;;;6.90;2.23;;;12.60;99.90;;;;;;5071494;28;20441;-46
2020/12/22 11:29:44;;;;;;;4.83;3.07;;;12.70;99.90;;;;;;5071834;28;20457;-47
2020/12/22 11:32:12;;;;;;;5.23;3.30;;;12.50;99.90;;;;;;5069894;28;20485;-46
2020/12/22 11:34:40;;;;;;;2.63;2.20;;;12.40;99.90;;;;;;5071566;28;20482;-46
2020/12/22 11:37:06;;;;;;;6.53;2.70;;;12.70;99.90;;;;;;5071473;28;20444;-46
2020/12/22 11:39:33;;;;;;;2.43;2.23;;;12.70;99.90;;;;;;5071107;28;20948;-46
2020/12/22 11:42:04;;;;;;;3.63;2.13;;;12.80;99.90;;;;;;5071386;28;20504;-45
2020/12/22 11:44:31;;;;;;;3.40;2.57;;;13.00;99.90;;;;;;5070509;28;20433;-46
2020/12/22 11:46:58;;;;;;;6.37;2.60;;;12.90;99.90;;;;;;5071566;28;20476;-46
2020/12/22 11:49:27;;;;;;;5.70;2.60;;;12.60;99.90;;;;;;5075304;28;20452;-47
2020/12/22 11:51:58;;;;;;;3.60;2.47;;;12.70;99.90;;;;;;5074770;28;20918;-47
2020/12/22 11:54:25;;;;;;;2.60;2.03;;;13.10;99.90;;;;;;5070233;28;20478;-48
2020/12/22 11:56:53;;;;;;;5.17;4.50;;;12.90;99.90;;;;;;5074854;28;20437;-47
2020/12/22 11:59:20;;;;;;;4.83;2.50;;;13.10;99.90;;;;;;5075055;28;20438;-48
2020/12/22 12:01:47;;;;;;;3.13;2.37;;;12.90;99.90;;;;;;5063427;28;20810;-48
2020/12/22 12:04:13;;;;;;;2.60;2.40;;;13.00;99.90;;;;;;5054653;28;20781;-48
2020/12/22 12:06:45;;;;;;;4.33;2.70;;;13.00;99.90;;;;;;5054902;28;20772;-47
2020/12/22 12:09:13;;;;;;;4.33;2.37;;;13.10;99.90;;;;;;5054435;28;20437;-48
2020/12/22 12:11:40;;;;;;;2.57;2.10;;;12.90;99.90;;;;;;5054543;28;20453;-46
2020/12/22 12:14:07;;;;;;;4.80;2.90;;;13.30;99.90;;;;;;5054598;28;20930;-46
2020/12/22 12:16:34;;;;;;;3.63;2.53;;;12.90;99.90;;;;;;5054632;28;20990;-47
2020/12/22 12:19:00;;;;;;;3.83;2.10;;;13.30;99.90;;;;;;5054772;28;20958;-47
2020/12/22 12:21:28;;;;;;;3.87;3.20;;;13.20;99.90;;;;;;5054112;28;20443;-46
2020/12/22 12:23:55;;;;;;;2.87;2.40;;;13.20;99.90;;;;;;5062447;28;20540;-47
2020/12/22 12:26:23;;;;;;;2.60;2.10;;;13.40;99.90;;;;;;5074117;28;20437;-47
2020/12/22 12:28:50;;;;;;;2.73;1.80;;;13.20;99.90;;;;;;5074177;28;20424;-46
2020/12/22 12:31:21;;;;;;;3.73;2.70;;;13.40;99.90;;;;;;5074066;28;20451;-47
2020/12/22 12:33:48;;;;;;;2.47;1.90;;;13.40;99.90;;;;;;5073766;28;20537;-48
2020/12/22 12:36:15;;;;;;;3.33;2.30;;;13.70;99.90;;;;;;5073810;28;20441;-47
2020/12/22 12:38:41;;;;;;;4.50;3.30;;;13.60;99.90;;;;;;5072517;28;20461;-48
2020/12/22 12:41:11;;;;;;;3.13;2.30;;;13.50;99.90;;;;;;5073789;28;20538;-46
2020/12/22 12:43:38;;;;;;;4.43;2.77;;;13.80;99.90;;;;;;5073505;28;20439;-46
2020/12/22 12:46:05;;;;;;;2.47;1.70;;;13.70;99.90;;;;;;5074246;28;20455;-47